sensor_id;sensor_type;location;lat;lon;timestamp;temperature;humidity
22145;DHT22;11238;48.730;11.566;2023-09-18T00:00:50;18.80;99.90
22145;DHT22;11238;48.730;11.566;2023-09-18T00:03:21;18.70;99.90
22145;DHT22;11238;48.730;11.566;2023-09-18T00:05:50;18.60;99.90
22145;DHT22;11238;48.730;11.566;2023-09-18T00:08:17;18.70;99.90
22145;DHT22;11238;48.730;11.566;2023-09-18T00:10:52;18.70;99.90
22145;DHT22;11238;48.730;11.566;2023-09-18T00:13:19;18.60;99.90
22145;DHT22;11238;48.730;11.566;2023-09-18T00:15:45;18.60;99.90
22145;DHT22;11238;48.730;11.566;2023-09-18T00:18:16;18.40;99.90
22145;DHT22;11238;48.730;11.566;2023-09-18T00:20:42;18.50;99.90
22145;DHT22;11238;48.730;11.566;2023-09-18T00:23:09;18.50;99.90
22145;DHT22;11238;48.730;11.566;2023-09-18T00:25:34;18.40;99.90
22145;DHT22;11238;48.730;11.566;2023-09-18T00:28:00;18.30;99.90
22145;DHT22;11238;48.730;11.566;2023-09-18T00:30:26;18.30;99.90
22145;DHT22;11238;48.730;11.566;2023-09-18T00:32:52;18.40;99.90
22145;DHT22;11238;48.730;11.566;2023-09-18T00:35:18;18.40;99.90
22145;DHT22;11238;48.730;11.566;2023-09-18T00:37:44;18.30;99.90
22145;DHT22;11238;48.730;11.566;2023-09-18T00:40:10;18.30;99.90
22145;DHT22;11238;48.730;11.566;2023-09-18T00:42:37;18.30;99.90
22145;DHT22;11238;48.730;11.566;2023-09-18T00:45:03;18.30;99.90
22145;DHT22;11238;48.730;11.566;2023-09-18T00:47:29;18.30;99.90
22145;DHT22;11238;48.730;11.566;2023-09-18T00:49:55;18.20;99.90
22145;DHT22;11238;48.730;11.566;2023-09-18T00:52:22;18.20;99.90
22145;DHT22;11238;48.730;11.566;2023-09-18T00:54:48;18.20;99.90
22145;DHT22;11238;48.730;11.566;2023-09-18T00:57:15;18.20;99.90
22145;DHT22;11238;48.730;11.566;2023-09-18T00:59:42;18.20;99.90
22145;DHT22;11238;48.730;11.566;2023-09-18T01:02:08;18.20;99.90
22145;DHT22;11238;48.730;11.566;2023-09-18T01:04:34;18.20;99.90
22145;DHT22;11238;48.730;11.566;2023-09-18T01:07:00;18.10;99.90
22145;DHT22;11238;48.730;11.566;2023-09-18T01:09:30;18.10;99.90
22145;DHT22;11238;48.730;11.566;2023-09-18T01:17:19;18.10;99.90
22145;DHT22;11238;48.730;11.566;2023-09-18T01:19:46;18.10;99.90
22145;DHT22;11238;48.730;11.566;2023-09-18T01:22:17;18.10;99.90
22145;DHT22;11238;48.730;11.566;2023-09-18T01:24:45;18.00;99.90
22145;DHT22;11238;48.730;11.566;2023-09-18T01:27:15;18.00;99.90
22145;DHT22;11238;48.730;11.566;2023-09-18T01:29:45;18.00;99.90
22145;DHT22;11238;48.730;11.566;2023-09-18T01:32:11;18.00;99.90
22145;DHT22;11238;48.730;11.566;2023-09-18T01:34:45;18.00;99.90
22145;DHT22;11238;48.730;11.566;2023-09-18T01:37:12;18.00;99.90
22145;DHT22;11238;48.730;11.566;2023-09-18T01:39:41;18.00;99.90
22145;DHT22;11238;48.730;11.566;2023-09-18T01:42:07;17.80;99.90
22145;DHT22;11238;48.730;11.566;2023-09-18T01:44:36;17.90;99.90
22145;DHT22;11238;48.730;11.566;2023-09-18T01:47:12;17.90;99.90
22145;DHT22;11238;48.730;11.566;2023-09-18T01:49:39;17.90;99.90
22145;DHT22;11238;48.730;11.566;2023-09-18T01:52:08;17.90;99.90
22145;DHT22;11238;48.730;11.566;2023-09-18T01:54:34;17.90;99.90
22145;DHT22;11238;48.730;11.566;2023-09-18T01:57:01;17.80;99.90
22145;DHT22;11238;48.730;11.566;2023-09-18T01:59:28;17.80;99.90
22145;DHT22;11238;48.730;11.566;2023-09-18T02:01:54;17.70;99.90
22145;DHT22;11238;48.730;11.566;2023-09-18T02:04:21;17.80;99.90
22145;DHT22;11238;48.730;11.566;2023-09-18T02:06:50;17.70;99.90
22145;DHT22;11238;48.730;11.566;2023-09-18T02:09:16;17.70;99.90
22145;DHT22;11238;48.730;11.566;2023-09-18T02:11:45;17.70;99.90
22145;DHT22;11238;48.730;11.566;2023-09-18T02:14:12;17.70;99.90
22145;DHT22;11238;48.730;11.566;2023-09-18T02:16:39;17.70;99.90
22145;DHT22;11238;48.730;11.566;2023-09-18T02:19:13;17.70;99.90
22145;DHT22;11238;48.730;11.566;2023-09-18T02:21:39;17.60;99.90
22145;DHT22;11238;48.730;11.566;2023-09-18T02:24:06;17.50;99.90
22145;DHT22;11238;48.730;11.566;2023-09-18T02:26:31;17.40;99.90
22145;DHT22;11238;48.730;11.566;2023-09-18T02:29:06;17.40;99.90
22145;DHT22;11238;48.730;11.566;2023-09-18T02:31:32;17.30;99.90
22145;DHT22;11238;48.730;11.566;2023-09-18T02:33:58;17.30;99.90
22145;DHT22;11238;48.730;11.566;2023-09-18T02:36:24;17.30;99.90
22145;DHT22;11238;48.730;11.566;2023-09-18T02:38:50;17.30;99.90
22145;DHT22;11238;48.730;11.566;2023-09-18T02:41:16;17.40;99.90
22145;DHT22;11238;48.730;11.566;2023-09-18T02:43:42;17.30;99.90
22145;DHT22;11238;48.730;11.566;2023-09-18T02:46:08;17.40;99.90
22145;DHT22;11238;48.730;11.566;2023-09-18T02:48:34;17.40;99.90
22145;DHT22;11238;48.730;11.566;2023-09-18T02:51:01;17.30;99.90
22145;DHT22;11238;48.730;11.566;2023-09-18T02:53:27;17.40;99.90
22145;DHT22;11238;48.730;11.566;2023-09-18T02:56:15;17.40;99.90
22145;DHT22;11238;48.730;11.566;2023-09-18T02:58:41;17.30;99.90
22145;DHT22;11238;48.730;11.566;2023-09-18T03:01:08;17.20;99.90
22145;DHT22;11238;48.730;11.566;2023-09-18T03:03:34;17.20;99.90
22145;DHT22;11238;48.730;11.566;2023-09-18T03:06:02;17.30;99.90
22145;DHT22;11238;48.730;11.566;2023-09-18T03:08:29;17.10;99.90
22145;DHT22;11238;48.730;11.566;2023-09-18T03:10:55;17.20;99.90
22145;DHT22;11238;48.730;11.566;2023-09-18T03:13:22;17.20;99.90
22145;DHT22;11238;48.730;11.566;2023-09-18T03:15:48;17.20;99.90
22145;DHT22;11238;48.730;11.566;2023-09-18T03:18:14;17.20;99.90
22145;DHT22;11238;48.730;11.566;2023-09-18T03:20:42;17.20;99.90
22145;DHT22;11238;48.730;11.566;2023-09-18T03:23:08;17.10;99.90
22145;DHT22;11238;48.730;11.566;2023-09-18T03:25:35;17.10;99.90
22145;DHT22;11238;48.730;11.566;2023-09-18T03:28:04;17.00;99.90
22145;DHT22;11238;48.730;11.566;2023-09-18T03:30:32;17.10;99.90
22145;DHT22;11238;48.730;11.566;2023-09-18T03:32:58;17.10;99.90
22145;DHT22;11238;48.730;11.566;2023-09-18T03:35:28;17.10;99.90
22145;DHT22;11238;48.730;11.566;2023-09-18T03:37:54;17.00;99.90
22145;DHT22;11238;48.730;11.566;2023-09-18T03:40:21;16.90;99.90
22145;DHT22;11238;48.730;11.566;2023-09-18T03:42:47;16.90;99.90
22145;DHT22;11238;48.730;11.566;2023-09-18T03:45:15;17.00;99.90
22145;DHT22;11238;48.730;11.566;2023-09-18T03:47:46;17.00;99.90
22145;DHT22;11238;48.730;11.566;2023-09-18T03:50:12;17.00;99.90
22145;DHT22;11238;48.730;11.566;2023-09-18T03:52:39;17.00;99.90
22145;DHT22;11238;48.730;11.566;2023-09-18T03:55:07;17.00;99.90
22145;DHT22;11238;48.730;11.566;2023-09-18T03:57:33;16.90;99.90
22145;DHT22;11238;48.730;11.566;2023-09-18T03:59:59;16.90;99.90
22145;DHT22;11238;48.730;11.566;2023-09-18T04:02:26;16.90;99.90
22145;DHT22;11238;48.730;11.566;2023-09-18T04:04:53;16.90;99.90
22145;DHT22;11238;48.730;11.566;2023-09-18T04:07:19;16.90;99.90
22145;DHT22;11238;48.730;11.566;2023-09-18T04:09:46;16.90;99.90
22145;DHT22;11238;48.730;11.566;2023-09-18T04:12:12;16.80;99.90
22145;DHT22;11238;48.730;11.566;2023-09-18T04:14:38;16.80;99.90
22145;DHT22;11238;48.730;11.566;2023-09-18T04:17:04;16.80;99.90
22145;DHT22;11238;48.730;11.566;2023-09-18T04:19:29;16.80;99.90
22145;DHT22;11238;48.730;11.566;2023-09-18T04:21:56;16.80;99.90
22145;DHT22;11238;48.730;11.566;2023-09-18T04:24:22;16.80;99.90
22145;DHT22;11238;48.730;11.566;2023-09-18T04:26:49;16.80;99.90
22145;DHT22;11238;48.730;11.566;2023-09-18T04:29:18;16.70;99.90
22145;DHT22;11238;48.730;11.566;2023-09-18T04:31:44;16.70;99.90
22145;DHT22;11238;48.730;11.566;2023-09-18T04:34:10;16.80;99.90
22145;DHT22;11238;48.730;11.566;2023-09-18T04:36:36;16.80;99.90
22145;DHT22;11238;48.730;11.566;2023-09-18T04:39:05;16.80;99.90
22145;DHT22;11238;48.730;11.566;2023-09-18T04:41:32;16.70;99.90
22145;DHT22;11238;48.730;11.566;2023-09-18T04:43:59;16.60;99.90
22145;DHT22;11238;48.730;11.566;2023-09-18T04:46:25;16.60;99.90
22145;DHT22;11238;48.730;11.566;2023-09-18T04:48:51;16.70;99.90
22145;DHT22;11238;48.730;11.566;2023-09-18T04:51:18;16.60;99.90
22145;DHT22;11238;48.730;11.566;2023-09-18T04:53:44;16.60;99.90
22145;DHT22;11238;48.730;11.566;2023-09-18T04:56:10;16.60;99.90
22145;DHT22;11238;48.730;11.566;2023-09-18T04:58:37;16.60;99.90
22145;DHT22;11238;48.730;11.566;2023-09-18T05:01:03;16.60;99.90
22145;DHT22;11238;48.730;11.566;2023-09-18T05:03:34;16.50;99.90
22145;DHT22;11238;48.730;11.566;2023-09-18T05:06:00;16.50;99.90
22145;DHT22;11238;48.730;11.566;2023-09-18T05:08:26;16.60;99.90
22145;DHT22;11238;48.730;11.566;2023-09-18T05:10:51;16.50;99.90
22145;DHT22;11238;48.730;11.566;2023-09-18T05:13:17;16.60;99.90
22145;DHT22;11238;48.730;11.566;2023-09-18T05:15:43;16.60;99.90
22145;DHT22;11238;48.730;11.566;2023-09-18T05:18:09;16.60;99.90
22145;DHT22;11238;48.730;11.566;2023-09-18T05:20:35;16.60;99.90
22145;DHT22;11238;48.730;11.566;2023-09-18T05:23:01;16.70;99.90
22145;DHT22;11238;48.730;11.566;2023-09-18T05:25:30;16.70;99.90
22145;DHT22;11238;48.730;11.566;2023-09-18T05:28:00;16.80;99.90
22145;DHT22;11238;48.730;11.566;2023-09-18T05:30:27;16.80;99.90
22145;DHT22;11238;48.730;11.566;2023-09-18T05:32:57;16.80;99.90
22145;DHT22;11238;48.730;11.566;2023-09-18T05:35:30;16.80;99.90
22145;DHT22;11238;48.730;11.566;2023-09-18T05:37:56;16.80;99.90
22145;DHT22;11238;48.730;11.566;2023-09-18T05:40:24;16.80;99.90
22145;DHT22;11238;48.730;11.566;2023-09-18T05:42:54;16.80;99.90
22145;DHT22;11238;48.730;11.566;2023-09-18T05:45:20;16.80;99.90
22145;DHT22;11238;48.730;11.566;2023-09-18T05:47:47;16.90;99.90
22145;DHT22;11238;48.730;11.566;2023-09-18T05:50:14;17.10;99.90
22145;DHT22;11238;48.730;11.566;2023-09-18T05:52:42;17.10;99.90
22145;DHT22;11238;48.730;11.566;2023-09-18T05:55:09;17.30;99.90
22145;DHT22;11238;48.730;11.566;2023-09-18T05:57:37;17.40;99.90
22145;DHT22;11238;48.730;11.566;2023-09-18T06:00:03;17.60;99.90
22145;DHT22;11238;48.730;11.566;2023-09-18T06:02:40;17.70;99.90
22145;DHT22;11238;48.730;11.566;2023-09-18T06:05:06;17.90;99.90
22145;DHT22;11238;48.730;11.566;2023-09-18T06:07:32;18.00;99.90
22145;DHT22;11238;48.730;11.566;2023-09-18T06:09:58;18.10;99.90
22145;DHT22;11238;48.730;11.566;2023-09-18T06:12:24;18.20;99.90
22145;DHT22;11238;48.730;11.566;2023-09-18T06:14:51;18.30;99.90
22145;DHT22;11238;48.730;11.566;2023-09-18T06:17:18;18.30;99.90
22145;DHT22;11238;48.730;11.566;2023-09-18T06:19:45;18.30;99.90
22145;DHT22;11238;48.730;11.566;2023-09-18T06:22:12;18.20;99.90
22145;DHT22;11238;48.730;11.566;2023-09-18T06:24:38;18.20;99.90
22145;DHT22;11238;48.730;11.566;2023-09-18T06:27:04;18.20;99.90
22145;DHT22;11238;48.730;11.566;2023-09-18T06:29:33;18.20;99.90
22145;DHT22;11238;48.730;11.566;2023-09-18T06:32:00;18.20;99.90
22145;DHT22;11238;48.730;11.566;2023-09-18T06:34:26;18.20;99.90
22145;DHT22;11238;48.730;11.566;2023-09-18T06:36:54;18.30;99.90
22145;DHT22;11238;48.730;11.566;2023-09-18T06:39:20;18.40;99.90
22145;DHT22;11238;48.730;11.566;2023-09-18T06:41:49;18.50;99.90
22145;DHT22;11238;48.730;11.566;2023-09-18T06:44:18;18.40;99.90
22145;DHT22;11238;48.730;11.566;2023-09-18T06:46:47;18.40;99.90
22145;DHT22;11238;48.730;11.566;2023-09-18T06:49:13;18.40;99.90
22145;DHT22;11238;48.730;11.566;2023-09-18T06:51:38;18.40;99.90
22145;DHT22;11238;48.730;11.566;2023-09-18T06:54:05;18.50;99.90
22145;DHT22;11238;48.730;11.566;2023-09-18T06:56:30;18.50;99.90
22145;DHT22;11238;48.730;11.566;2023-09-18T06:58:56;18.60;99.90
22145;DHT22;11238;48.730;11.566;2023-09-18T07:01:23;18.70;99.90
22145;DHT22;11238;48.730;11.566;2023-09-18T07:03:50;18.80;99.90
22145;DHT22;11238;48.730;11.566;2023-09-18T07:06:16;18.90;99.90
22145;DHT22;11238;48.730;11.566;2023-09-18T07:08:43;19.00;99.90
22145;DHT22;11238;48.730;11.566;2023-09-18T07:11:09;19.00;99.90
22145;DHT22;11238;48.730;11.566;2023-09-18T07:13:35;19.10;99.90
22145;DHT22;11238;48.730;11.566;2023-09-18T07:16:01;19.20;99.90
22145;DHT22;11238;48.730;11.566;2023-09-18T07:18:29;19.10;99.90
22145;DHT22;11238;48.730;11.566;2023-09-18T07:20:56;19.10;99.90
22145;DHT22;11238;48.730;11.566;2023-09-18T07:23:24;19.20;99.90
22145;DHT22;11238;48.730;11.566;2023-09-18T07:25:50;19.30;99.90
22145;DHT22;11238;48.730;11.566;2023-09-18T07:28:16;19.40;99.90
22145;DHT22;11238;48.730;11.566;2023-09-18T07:30:45;19.50;99.90
22145;DHT22;11238;48.730;11.566;2023-09-18T07:33:12;19.70;99.90
22145;DHT22;11238;48.730;11.566;2023-09-18T07:35:38;19.70;99.90
22145;DHT22;11238;48.730;11.566;2023-09-18T07:38:23;19.80;99.90
22145;DHT22;11238;48.730;11.566;2023-09-18T07:40:50;19.90;99.90
22145;DHT22;11238;48.730;11.566;2023-09-18T07:43:17;20.00;99.90
22145;DHT22;11238;48.730;11.566;2023-09-18T07:45:53;20.10;99.90
22145;DHT22;11238;48.730;11.566;2023-09-18T07:48:25;20.20;99.90
22145;DHT22;11238;48.730;11.566;2023-09-18T07:50:53;20.30;99.90
22145;DHT22;11238;48.730;11.566;2023-09-18T07:53:20;20.40;99.90
22145;DHT22;11238;48.730;11.566;2023-09-18T07:55:54;20.50;99.90
22145;DHT22;11238;48.730;11.566;2023-09-18T07:58:20;20.50;99.90
22145;DHT22;11238;48.730;11.566;2023-09-18T08:00:46;20.70;99.90
22145;DHT22;11238;48.730;11.566;2023-09-18T08:03:13;20.80;99.90
22145;DHT22;11238;48.730;11.566;2023-09-18T08:05:40;20.90;99.90
22145;DHT22;11238;48.730;11.566;2023-09-18T08:08:06;21.00;99.90
22145;DHT22;11238;48.730;11.566;2023-09-18T08:10:32;21.10;99.90
22145;DHT22;11238;48.730;11.566;2023-09-18T08:12:58;21.20;99.90
22145;DHT22;11238;48.730;11.566;2023-09-18T08:15:24;21.10;99.90
22145;DHT22;11238;48.730;11.566;2023-09-18T08:17:51;21.20;99.90
22145;DHT22;11238;48.730;11.566;2023-09-18T08:20:21;21.40;99.90
22145;DHT22;11238;48.730;11.566;2023-09-18T08:22:48;21.50;99.90
22145;DHT22;11238;48.730;11.566;2023-09-18T08:25:14;21.60;99.90
22145;DHT22;11238;48.730;11.566;2023-09-18T08:27:41;21.70;99.90
22145;DHT22;11238;48.730;11.566;2023-09-18T08:30:10;21.80;99.90
22145;DHT22;11238;48.730;11.566;2023-09-18T08:32:39;21.90;99.90
22145;DHT22;11238;48.730;11.566;2023-09-18T08:35:07;22.00;99.90
22145;DHT22;11238;48.730;11.566;2023-09-18T08:37:33;21.90;99.90
22145;DHT22;11238;48.730;11.566;2023-09-18T08:39:59;22.00;99.90
22145;DHT22;11238;48.730;11.566;2023-09-18T08:42:38;21.90;99.90
22145;DHT22;11238;48.730;11.566;2023-09-18T08:45:09;21.90;99.90
22145;DHT22;11238;48.730;11.566;2023-09-18T08:47:42;21.80;99.90
22145;DHT22;11238;48.730;11.566;2023-09-18T08:50:08;21.80;99.90
22145;DHT22;11238;48.730;11.566;2023-09-18T08:52:36;21.90;99.90
22145;DHT22;11238;48.730;11.566;2023-09-18T08:55:12;22.00;99.90
22145;DHT22;11238;48.730;11.566;2023-09-18T08:57:40;22.10;99.90
22145;DHT22;11238;48.730;11.566;2023-09-18T09:00:07;22.20;99.90
22145;DHT22;11238;48.730;11.566;2023-09-18T09:02:34;22.30;99.90
22145;DHT22;11238;48.730;11.566;2023-09-18T09:05:01;22.40;99.90
22145;DHT22;11238;48.730;11.566;2023-09-18T09:07:28;22.50;99.90
22145;DHT22;11238;48.730;11.566;2023-09-18T09:09:57;22.60;99.90
22145;DHT22;11238;48.730;11.566;2023-09-18T09:15:14;22.90;99.90
22145;DHT22;11238;48.730;11.566;2023-09-18T09:17:41;23.00;99.90
22145;DHT22;11238;48.730;11.566;2023-09-18T09:20:09;23.20;99.90
22145;DHT22;11238;48.730;11.566;2023-09-18T09:22:41;23.30;99.90
22145;DHT22;11238;48.730;11.566;2023-09-18T09:25:23;23.40;99.90
22145;DHT22;11238;48.730;11.566;2023-09-18T09:27:55;23.70;99.90
22145;DHT22;11238;48.730;11.566;2023-09-18T09:30:24;23.80;99.90
22145;DHT22;11238;48.730;11.566;2023-09-18T09:32:51;23.90;99.90
22145;DHT22;11238;48.730;11.566;2023-09-18T09:35:28;23.90;99.90
22145;DHT22;11238;48.730;11.566;2023-09-18T09:38:01;23.90;99.90
22145;DHT22;11238;48.730;11.566;2023-09-18T09:40:29;24.00;99.90
22145;DHT22;11238;48.730;11.566;2023-09-18T09:42:56;24.10;99.90
22145;DHT22;11238;48.730;11.566;2023-09-18T09:45:33;24.20;99.90
22145;DHT22;11238;48.730;11.566;2023-09-18T09:48:03;24.30;99.90
22145;DHT22;11238;48.730;11.566;2023-09-18T09:50:30;24.40;99.90
22145;DHT22;11238;48.730;11.566;2023-09-18T09:52:59;24.30;99.90
22145;DHT22;11238;48.730;11.566;2023-09-18T09:55:27;24.40;99.90
22145;DHT22;11238;48.730;11.566;2023-09-18T09:58:01;24.50;99.90
22145;DHT22;11238;48.730;11.566;2023-09-18T10:00:49;24.70;99.90
22145;DHT22;11238;48.730;11.566;2023-09-18T10:03:18;24.60;99.90
22145;DHT22;11238;48.730;11.566;2023-09-18T10:05:46;24.70;99.90
22145;DHT22;11238;48.730;11.566;2023-09-18T10:08:21;24.70;99.90
22145;DHT22;11238;48.730;11.566;2023-09-18T10:10:49;24.60;99.90
22145;DHT22;11238;48.730;11.566;2023-09-18T10:13:18;24.50;99.90
22145;DHT22;11238;48.730;11.566;2023-09-18T10:15:46;24.40;99.90
22145;DHT22;11238;48.730;11.566;2023-09-18T10:18:27;24.40;99.90
22145;DHT22;11238;48.730;11.566;2023-09-18T10:21:09;24.30;99.90
22145;DHT22;11238;48.730;11.566;2023-09-18T10:23:50;24.20;99.90
22145;DHT22;11238;48.730;11.566;2023-09-18T10:26:23;24.20;99.90
22145;DHT22;11238;48.730;11.566;2023-09-18T10:28:56;24.10;99.90
22145;DHT22;11238;48.730;11.566;2023-09-18T10:31:28;24.20;99.90
22145;DHT22;11238;48.730;11.566;2023-09-18T10:33:56;24.20;99.90
22145;DHT22;11238;48.730;11.566;2023-09-18T10:36:24;24.30;99.90
22145;DHT22;11238;48.730;11.566;2023-09-18T10:38:51;24.40;99.90
22145;DHT22;11238;48.730;11.566;2023-09-18T10:41:20;24.50;99.90
22145;DHT22;11238;48.730;11.566;2023-09-18T10:43:46;24.50;99.90
22145;DHT22;11238;48.730;11.566;2023-09-18T10:46:15;24.60;98.10
22145;DHT22;11238;48.730;11.566;2023-09-18T10:48:43;24.60;95.20
22145;DHT22;11238;48.730;11.566;2023-09-18T10:51:10;24.80;94.70
22145;DHT22;11238;48.730;11.566;2023-09-18T10:53:36;24.80;94.50
22145;DHT22;11238;48.730;11.566;2023-09-18T10:56:02;24.90;94.20
22145;DHT22;11238;48.730;11.566;2023-09-18T10:58:33;25.00;93.60
22145;DHT22;11238;48.730;11.566;2023-09-18T11:01:05;25.10;93.20
22145;DHT22;11238;48.730;11.566;2023-09-18T11:03:33;25.30;93.20
22145;DHT22;11238;48.730;11.566;2023-09-18T11:06:04;25.30;92.50
22145;DHT22;11238;48.730;11.566;2023-09-18T11:08:58;25.30;92.70
22145;DHT22;11238;48.730;11.566;2023-09-18T11:11:27;25.30;92.80
22145;DHT22;11238;48.730;11.566;2023-09-18T11:13:56;25.40;92.70
22145;DHT22;11238;48.730;11.566;2023-09-18T11:18:52;25.40;92.00
22145;DHT22;11238;48.730;11.566;2023-09-18T11:21:24;25.40;91.70
22145;DHT22;11238;48.730;11.566;2023-09-18T11:24:21;25.30;92.30
22145;DHT22;11238;48.730;11.566;2023-09-18T11:26:49;25.30;91.20
22145;DHT22;11238;48.730;11.566;2023-09-18T11:29:21;25.20;91.30
22145;DHT22;11238;48.730;11.566;2023-09-18T11:31:49;25.20;91.40
22145;DHT22;11238;48.730;11.566;2023-09-18T11:34:23;25.10;91.60
22145;DHT22;11238;48.730;11.566;2023-09-18T11:36:50;25.10;91.70
22145;DHT22;11238;48.730;11.566;2023-09-18T11:39:38;25.10;90.90
22145;DHT22;11238;48.730;11.566;2023-09-18T11:42:12;25.10;90.60
22145;DHT22;11238;48.730;11.566;2023-09-18T11:44:41;25.10;90.30
22145;DHT22;11238;48.730;11.566;2023-09-18T11:47:12;25.10;90.60
22145;DHT22;11238;48.730;11.566;2023-09-18T11:49:46;25.10;90.90
22145;DHT22;11238;48.730;11.566;2023-09-18T11:52:16;25.00;90.40
22145;DHT22;11238;48.730;11.566;2023-09-18T11:54:43;24.80;90.00
22145;DHT22;11238;48.730;11.566;2023-09-18T11:57:09;24.60;90.20
22145;DHT22;11238;48.730;11.566;2023-09-18T11:59:40;24.60;90.20
22145;DHT22;11238;48.730;11.566;2023-09-18T12:02:32;24.50;90.90
22145;DHT22;11238;48.730;11.566;2023-09-18T12:05:23;24.30;91.20
22145;DHT22;11238;48.730;11.566;2023-09-18T12:07:52;24.40;92.00
22145;DHT22;11238;48.730;11.566;2023-09-18T12:10:19;24.30;92.10
22145;DHT22;11238;48.730;11.566;2023-09-18T12:12:51;24.30;92.30
22145;DHT22;11238;48.730;11.566;2023-09-18T12:15:18;24.10;91.90
22145;DHT22;11238;48.730;11.566;2023-09-18T12:17:44;24.00;92.20
22145;DHT22;11238;48.730;11.566;2023-09-18T12:20:17;23.90;92.30
22145;DHT22;11238;48.730;11.566;2023-09-18T12:22:50;23.80;92.30
22145;DHT22;11238;48.730;11.566;2023-09-18T12:25:16;23.80;92.40
22145;DHT22;11238;48.730;11.566;2023-09-18T12:27:44;23.70;92.60
22145;DHT22;11238;48.730;11.566;2023-09-18T12:30:13;23.60;92.70
22145;DHT22;11238;48.730;11.566;2023-09-18T12:32:46;23.50;93.10
22145;DHT22;11238;48.730;11.566;2023-09-18T12:35:16;23.30;93.40
22145;DHT22;11238;48.730;11.566;2023-09-18T12:37:44;23.10;94.10
22145;DHT22;11238;48.730;11.566;2023-09-18T12:40:22;23.00;94.30
22145;DHT22;11238;48.730;11.566;2023-09-18T12:42:49;22.90;95.20
22145;DHT22;11238;48.730;11.566;2023-09-18T12:45:16;22.60;95.70
22145;DHT22;11238;48.730;11.566;2023-09-18T12:47:43;22.40;96.70
22145;DHT22;11238;48.730;11.566;2023-09-18T12:50:12;22.30;97.20
22145;DHT22;11238;48.730;11.566;2023-09-18T12:52:40;22.10;97.90
22145;DHT22;11238;48.730;11.566;2023-09-18T12:55:06;21.90;98.70
22145;DHT22;11238;48.730;11.566;2023-09-18T12:57:35;21.70;99.20
22145;DHT22;11238;48.730;11.566;2023-09-18T13:00:10;21.60;99.80
22145;DHT22;11238;48.730;11.566;2023-09-18T13:02:38;21.30;99.40
22145;DHT22;11238;48.730;11.566;2023-09-18T13:05:05;21.20;99.90
22145;DHT22;11238;48.730;11.566;2023-09-18T13:07:31;21.00;99.70
22145;DHT22;11238;48.730;11.566;2023-09-18T13:10:05;20.90;99.50
22145;DHT22;11238;48.730;11.566;2023-09-18T13:12:46;20.80;99.90
22145;DHT22;11238;48.730;11.566;2023-09-18T13:15:13;20.80;99.90
22145;DHT22;11238;48.730;11.566;2023-09-18T13:17:43;20.70;99.90
22145;DHT22;11238;48.730;11.566;2023-09-18T13:20:22;20.60;99.90
22145;DHT22;11238;48.730;11.566;2023-09-18T13:22:54;20.40;99.90
22145;DHT22;11238;48.730;11.566;2023-09-18T13:25:31;20.20;99.90
22145;DHT22;11238;48.730;11.566;2023-09-18T13:28:01;20.20;99.90
22145;DHT22;11238;48.730;11.566;2023-09-18T13:30:27;20.10;99.90
22145;DHT22;11238;48.730;11.566;2023-09-18T13:33:02;19.90;99.90
22145;DHT22;11238;48.730;11.566;2023-09-18T13:35:52;19.90;99.90
22145;DHT22;11238;48.730;11.566;2023-09-18T13:38:19;19.90;99.90
22145;DHT22;11238;48.730;11.566;2023-09-18T13:40:46;19.80;99.90
22145;DHT22;11238;48.730;11.566;2023-09-18T13:43:13;19.80;99.90
22145;DHT22;11238;48.730;11.566;2023-09-18T13:45:44;19.60;99.90
22145;DHT22;11238;48.730;11.566;2023-09-18T13:48:12;19.60;99.90
22145;DHT22;11238;48.730;11.566;2023-09-18T13:50:37;19.50;99.90
22145;DHT22;11238;48.730;11.566;2023-09-18T13:53:05;19.50;99.90
22145;DHT22;11238;48.730;11.566;2023-09-18T13:55:32;19.40;99.90
22145;DHT22;11238;48.730;11.566;2023-09-18T13:57:58;19.40;99.90
22145;DHT22;11238;48.730;11.566;2023-09-18T14:00:24;19.30;99.90
22145;DHT22;11238;48.730;11.566;2023-09-18T14:02:51;19.20;99.90
22145;DHT22;11238;48.730;11.566;2023-09-18T14:05:17;19.20;99.90
22145;DHT22;11238;48.730;11.566;2023-09-18T14:07:43;19.30;99.90
22145;DHT22;11238;48.730;11.566;2023-09-18T14:10:10;19.30;99.90
22145;DHT22;11238;48.730;11.566;2023-09-18T14:12:37;19.30;99.90
22145;DHT22;11238;48.730;11.566;2023-09-18T14:15:08;19.30;99.90
22145;DHT22;11238;48.730;11.566;2023-09-18T14:17:34;19.20;99.90
22145;DHT22;11238;48.730;11.566;2023-09-18T14:20:01;19.10;99.90
22145;DHT22;11238;48.730;11.566;2023-09-18T14:22:32;19.10;99.90
22145;DHT22;11238;48.730;11.566;2023-09-18T14:24:58;19.20;99.90
22145;DHT22;11238;48.730;11.566;2023-09-18T14:27:24;19.20;99.90
22145;DHT22;11238;48.730;11.566;2023-09-18T14:29:50;19.10;99.90
22145;DHT22;11238;48.730;11.566;2023-09-18T14:32:16;19.10;99.90
22145;DHT22;11238;48.730;11.566;2023-09-18T14:34:42;19.00;99.90
22145;DHT22;11238;48.730;11.566;2023-09-18T14:37:07;19.00;99.90
22145;DHT22;11238;48.730;11.566;2023-09-18T14:39:34;19.10;99.90
22145;DHT22;11238;48.730;11.566;2023-09-18T14:42:00;19.20;99.90
22145;DHT22;11238;48.730;11.566;2023-09-18T14:44:26;19.10;99.90
22145;DHT22;11238;48.730;11.566;2023-09-18T14:46:56;19.30;99.90
22145;DHT22;11238;48.730;11.566;2023-09-18T14:49:22;18.90;99.90
22145;DHT22;11238;48.730;11.566;2023-09-18T14:51:48;19.10;99.90
22145;DHT22;11238;48.730;11.566;2023-09-18T14:54:16;19.20;99.90
22145;DHT22;11238;48.730;11.566;2023-09-18T14:56:43;19.30;99.90
22145;DHT22;11238;48.730;11.566;2023-09-18T14:59:10;19.40;99.90
22145;DHT22;11238;48.730;11.566;2023-09-18T15:01:36;19.50;99.90
22145;DHT22;11238;48.730;11.566;2023-09-18T15:04:03;19.60;99.90
22145;DHT22;11238;48.730;11.566;2023-09-18T15:06:29;19.60;99.90
22145;DHT22;11238;48.730;11.566;2023-09-18T15:08:55;19.70;99.90
22145;DHT22;11238;48.730;11.566;2023-09-18T15:11:21;19.70;99.90
22145;DHT22;11238;48.730;11.566;2023-09-18T15:13:47;19.80;99.90
22145;DHT22;11238;48.730;11.566;2023-09-18T15:16:13;19.80;99.90
22145;DHT22;11238;48.730;11.566;2023-09-18T15:18:39;19.80;99.90
22145;DHT22;11238;48.730;11.566;2023-09-18T15:21:06;19.80;99.90
22145;DHT22;11238;48.730;11.566;2023-09-18T15:23:31;19.70;99.90
22145;DHT22;11238;48.730;11.566;2023-09-18T15:25:58;19.70;99.90
22145;DHT22;11238;48.730;11.566;2023-09-18T15:28:24;19.50;99.90
22145;DHT22;11238;48.730;11.566;2023-09-18T15:30:51;19.60;99.90
22145;DHT22;11238;48.730;11.566;2023-09-18T15:33:16;19.60;99.90